sensor_id;sensor_type;location;lat;lon;timestamp;temperature;humidity
16412;DHT22;8315;52.104;6.304;2022-12-24T00:00:23;10.70;98.40
16412;DHT22;8315;52.104;6.304;2022-12-24T00:02:50;10.70;98.40
16412;DHT22;8315;52.104;6.304;2022-12-24T00:05:18;10.70;98.40
16412;DHT22;8315;52.104;6.304;2022-12-24T00:07:45;10.70;98.40
16412;DHT22;8315;52.104;6.304;2022-12-24T00:10:12;10.70;98.40
16412;DHT22;8315;52.104;6.304;2022-12-24T00:12:39;10.70;98.40
16412;DHT22;8315;52.104;6.304;2022-12-24T00:15:06;10.70;98.40
16412;DHT22;8315;52.104;6.304;2022-12-24T00:17:33;10.70;98.40
16412;DHT22;8315;52.104;6.304;2022-12-24T00:20:00;10.70;98.40
16412;DHT22;8315;52.104;6.304;2022-12-24T00:22:29;10.70;98.40
16412;DHT22;8315;52.104;6.304;2022-12-24T00:24:56;10.70;98.40
16412;DHT22;8315;52.104;6.304;2022-12-24T00:27:22;10.70;98.40
16412;DHT22;8315;52.104;6.304;2022-12-24T00:29:49;10.70;98.40
16412;DHT22;8315;52.104;6.304;2022-12-24T00:32:16;10.70;98.40
16412;DHT22;8315;52.104;6.304;2022-12-24T00:34:43;10.60;98.40
16412;DHT22;8315;52.104;6.304;2022-12-24T00:37:09;10.60;98.40
16412;DHT22;8315;52.104;6.304;2022-12-24T00:39:37;10.70;98.40
16412;DHT22;8315;52.104;6.304;2022-12-24T00:42:04;10.70;98.40
16412;DHT22;8315;52.104;6.304;2022-12-24T00:44:31;10.70;98.40
16412;DHT22;8315;52.104;6.304;2022-12-24T00:46:58;10.60;98.40
16412;DHT22;8315;52.104;6.304;2022-12-24T00:49:24;10.60;98.40
16412;DHT22;8315;52.104;6.304;2022-12-24T00:51:51;10.60;98.40
16412;DHT22;8315;52.104;6.304;2022-12-24T00:54:18;10.60;98.40
16412;DHT22;8315;52.104;6.304;2022-12-24T00:56:46;10.60;98.40
16412;DHT22;8315;52.104;6.304;2022-12-24T00:59:13;10.60;98.40
16412;DHT22;8315;52.104;6.304;2022-12-24T01:01:40;10.60;98.40
16412;DHT22;8315;52.104;6.304;2022-12-24T01:04:07;10.60;98.40
16412;DHT22;8315;52.104;6.304;2022-12-24T01:06:51;10.60;98.40
16412;DHT22;8315;52.104;6.304;2022-12-24T01:09:18;10.60;98.40
16412;DHT22;8315;52.104;6.304;2022-12-24T01:11:46;10.60;98.40
16412;DHT22;8315;52.104;6.304;2022-12-24T01:14:13;10.60;98.40
16412;DHT22;8315;52.104;6.304;2022-12-24T01:16:40;10.60;98.40
16412;DHT22;8315;52.104;6.304;2022-12-24T01:19:06;10.60;98.40
16412;DHT22;8315;52.104;6.304;2022-12-24T01:21:33;10.50;98.40
16412;DHT22;8315;52.104;6.304;2022-12-24T01:24:00;10.50;98.40
16412;DHT22;8315;52.104;6.304;2022-12-24T01:26:27;10.50;98.40
16412;DHT22;8315;52.104;6.304;2022-12-24T01:28:55;10.50;98.40
16412;DHT22;8315;52.104;6.304;2022-12-24T01:31:22;10.50;98.40
16412;DHT22;8315;52.104;6.304;2022-12-24T01:33:48;10.50;98.40
16412;DHT22;8315;52.104;6.304;2022-12-24T01:36:15;10.50;98.40
16412;DHT22;8315;52.104;6.304;2022-12-24T01:38:42;10.50;98.40
16412;DHT22;8315;52.104;6.304;2022-12-24T01:41:13;10.50;98.40
16412;DHT22;8315;52.104;6.304;2022-12-24T01:46:51;10.40;98.40
16412;DHT22;8315;52.104;6.304;2022-12-24T01:49:19;10.40;98.40
16412;DHT22;8315;52.104;6.304;2022-12-24T01:51:46;10.40;98.40
16412;DHT22;8315;52.104;6.304;2022-12-24T01:54:16;10.40;98.40
16412;DHT22;8315;52.104;6.304;2022-12-24T01:56:44;10.40;98.40
16412;DHT22;8315;52.104;6.304;2022-12-24T01:59:17;10.40;98.40
16412;DHT22;8315;52.104;6.304;2022-12-24T02:01:47;10.40;98.40
16412;DHT22;8315;52.104;6.304;2022-12-24T02:04:16;10.30;98.40
16412;DHT22;8315;52.104;6.304;2022-12-24T02:06:47;10.30;98.40
16412;DHT22;8315;52.104;6.304;2022-12-24T02:09:14;10.30;98.40
16412;DHT22;8315;52.104;6.304;2022-12-24T02:11:41;10.30;98.40
16412;DHT22;8315;52.104;6.304;2022-12-24T02:14:09;10.20;98.40
16412;DHT22;8315;52.104;6.304;2022-12-24T02:16:37;10.20;98.40
16412;DHT22;8315;52.104;6.304;2022-12-24T02:19:14;10.20;98.40
16412;DHT22;8315;52.104;6.304;2022-12-24T02:21:53;10.10;98.40
16412;DHT22;8315;52.104;6.304;2022-12-24T02:24:26;10.10;98.40
16412;DHT22;8315;52.104;6.304;2022-12-24T02:27:00;10.10;98.40
16412;DHT22;8315;52.104;6.304;2022-12-24T02:32:25;10.00;98.40
16412;DHT22;8315;52.104;6.304;2022-12-24T02:34:59;10.10;98.40
16412;DHT22;8315;52.104;6.304;2022-12-24T02:37:32;10.00;98.40
16412;DHT22;8315;52.104;6.304;2022-12-24T02:40:00;10.00;98.40
16412;DHT22;8315;52.104;6.304;2022-12-24T02:42:31;10.00;98.40
16412;DHT22;8315;52.104;6.304;2022-12-24T02:45:04;10.00;98.40
16412;DHT22;8315;52.104;6.304;2022-12-24T02:47:33;10.00;98.40
16412;DHT22;8315;52.104;6.304;2022-12-24T02:50:02;10.00;98.40
16412;DHT22;8315;52.104;6.304;2022-12-24T02:52:30;10.00;98.40
16412;DHT22;8315;52.104;6.304;2022-12-24T02:55:01;10.00;98.40
16412;DHT22;8315;52.104;6.304;2022-12-24T02:57:31;9.90;98.40
16412;DHT22;8315;52.104;6.304;2022-12-24T03:00:08;9.90;98.40
16412;DHT22;8315;52.104;6.304;2022-12-24T03:02:44;9.90;98.40
16412;DHT22;8315;52.104;6.304;2022-12-24T03:05:19;9.90;98.40
16412;DHT22;8315;52.104;6.304;2022-12-24T03:07:55;9.80;98.40
16412;DHT22;8315;52.104;6.304;2022-12-24T03:10:26;9.80;98.40
16412;DHT22;8315;52.104;6.304;2022-12-24T03:12:56;9.80;98.40
16412;DHT22;8315;52.104;6.304;2022-12-24T03:15:27;9.70;98.40
16412;DHT22;8315;52.104;6.304;2022-12-24T03:17:56;9.70;98.40
16412;DHT22;8315;52.104;6.304;2022-12-24T03:20:24;9.70;98.40
16412;DHT22;8315;52.104;6.304;2022-12-24T03:22:52;9.70;98.40
16412;DHT22;8315;52.104;6.304;2022-12-24T03:25:19;9.70;98.40
16412;DHT22;8315;52.104;6.304;2022-12-24T03:27:47;9.70;98.40
16412;DHT22;8315;52.104;6.304;2022-12-24T03:30:14;9.60;98.40
16412;DHT22;8315;52.104;6.304;2022-12-24T03:32:44;9.60;98.40
16412;DHT22;8315;52.104;6.304;2022-12-24T03:35:13;9.60;98.40
16412;DHT22;8315;52.104;6.304;2022-12-24T03:37:40;9.50;98.40
16412;DHT22;8315;52.104;6.304;2022-12-24T03:40:07;9.50;98.40
16412;DHT22;8315;52.104;6.304;2022-12-24T03:42:34;9.50;98.40
16412;DHT22;8315;52.104;6.304;2022-12-24T03:45:02;9.40;98.40
16412;DHT22;8315;52.104;6.304;2022-12-24T03:47:29;9.40;98.40
16412;DHT22;8315;52.104;6.304;2022-12-24T03:49:58;9.40;98.40
16412;DHT22;8315;52.104;6.304;2022-12-24T03:52:25;9.40;98.40
16412;DHT22;8315;52.104;6.304;2022-12-24T03:54:51;9.30;98.40
16412;DHT22;8315;52.104;6.304;2022-12-24T03:57:18;9.40;98.40
16412;DHT22;8315;52.104;6.304;2022-12-24T03:59:45;9.30;98.40
16412;DHT22;8315;52.104;6.304;2022-12-24T04:02:12;9.40;98.40
16412;DHT22;8315;52.104;6.304;2022-12-24T04:04:39;9.40;98.40
16412;DHT22;8315;52.104;6.304;2022-12-24T04:07:07;9.40;98.40
16412;DHT22;8315;52.104;6.304;2022-12-24T04:09:34;9.30;98.40
16412;DHT22;8315;52.104;6.304;2022-12-24T04:12:00;9.40;98.40
16412;DHT22;8315;52.104;6.304;2022-12-24T04:14:27;9.40;98.40
16412;DHT22;8315;52.104;6.304;2022-12-24T04:16:54;9.40;98.40
16412;DHT22;8315;52.104;6.304;2022-12-24T04:19:21;9.50;98.40
16412;DHT22;8315;52.104;6.304;2022-12-24T04:21:48;9.50;98.40
16412;DHT22;8315;52.104;6.304;2022-12-24T04:24:16;9.50;98.40
16412;DHT22;8315;52.104;6.304;2022-12-24T04:26:43;9.60;98.40
16412;DHT22;8315;52.104;6.304;2022-12-24T04:29:09;9.60;98.40
16412;DHT22;8315;52.104;6.304;2022-12-24T04:31:36;9.60;98.40
16412;DHT22;8315;52.104;6.304;2022-12-24T04:34:03;9.60;98.40
16412;DHT22;8315;52.104;6.304;2022-12-24T04:36:30;9.60;98.40
16412;DHT22;8315;52.104;6.304;2022-12-24T04:38:57;9.70;98.40
16412;DHT22;8315;52.104;6.304;2022-12-24T04:41:25;9.70;98.40
16412;DHT22;8315;52.104;6.304;2022-12-24T04:43:52;9.70;98.40
16412;DHT22;8315;52.104;6.304;2022-12-24T04:46:20;9.70;98.40
16412;DHT22;8315;52.104;6.304;2022-12-24T04:48:48;9.70;98.40
16412;DHT22;8315;52.104;6.304;2022-12-24T04:51:17;9.80;98.40
16412;DHT22;8315;52.104;6.304;2022-12-24T04:53:44;9.80;98.40
16412;DHT22;8315;52.104;6.304;2022-12-24T04:56:11;9.80;98.40
16412;DHT22;8315;52.104;6.304;2022-12-24T04:58:40;9.80;98.40
16412;DHT22;8315;52.104;6.304;2022-12-24T05:01:08;9.80;98.40
16412;DHT22;8315;52.104;6.304;2022-12-24T05:03:38;9.90;98.40
16412;DHT22;8315;52.104;6.304;2022-12-24T05:06:06;9.80;98.40
16412;DHT22;8315;52.104;6.304;2022-12-24T05:08:34;9.80;98.40
16412;DHT22;8315;52.104;6.304;2022-12-24T05:11:02;9.90;98.40
16412;DHT22;8315;52.104;6.304;2022-12-24T05:13:29;9.90;98.40
16412;DHT22;8315;52.104;6.304;2022-12-24T05:15:57;10.00;98.40
16412;DHT22;8315;52.104;6.304;2022-12-24T05:18:24;10.00;98.40
16412;DHT22;8315;52.104;6.304;2022-12-24T05:20:51;10.00;98.40
16412;DHT22;8315;52.104;6.304;2022-12-24T05:23:19;10.10;98.40
16412;DHT22;8315;52.104;6.304;2022-12-24T05:26:09;10.10;98.40
16412;DHT22;8315;52.104;6.304;2022-12-24T05:28:49;10.10;98.40
16412;DHT22;8315;52.104;6.304;2022-12-24T05:31:18;10.10;98.40
16412;DHT22;8315;52.104;6.304;2022-12-24T05:33:45;10.10;98.40
16412;DHT22;8315;52.104;6.304;2022-12-24T05:36:12;10.20;98.40
16412;DHT22;8315;52.104;6.304;2022-12-24T05:38:39;10.20;98.40
16412;DHT22;8315;52.104;6.304;2022-12-24T05:41:06;10.20;98.40
16412;DHT22;8315;52.104;6.304;2022-12-24T05:43:34;10.20;98.40
16412;DHT22;8315;52.104;6.304;2022-12-24T05:46:01;10.30;98.40
16412;DHT22;8315;52.104;6.304;2022-12-24T05:48:30;10.30;98.40
16412;DHT22;8315;52.104;6.304;2022-12-24T05:50:58;10.30;98.40
16412;DHT22;8315;52.104;6.304;2022-12-24T05:53:25;10.30;98.40
16412;DHT22;8315;52.104;6.304;2022-12-24T05:55:53;10.30;98.40
16412;DHT22;8315;52.104;6.304;2022-12-24T05:58:20;10.40;98.40
16412;DHT22;8315;52.104;6.304;2022-12-24T06:00:47;10.40;98.40
16412;DHT22;8315;52.104;6.304;2022-12-24T06:03:14;10.40;98.40
16412;DHT22;8315;52.104;6.304;2022-12-24T06:05:42;10.40;98.40
16412;DHT22;8315;52.104;6.304;2022-12-24T06:08:08;10.50;98.40
16412;DHT22;8315;52.104;6.304;2022-12-24T06:10:35;10.40;98.40
16412;DHT22;8315;52.104;6.304;2022-12-24T06:13:02;10.50;98.40
16412;DHT22;8315;52.104;6.304;2022-12-24T06:15:29;10.50;98.40
16412;DHT22;8315;52.104;6.304;2022-12-24T06:17:55;10.50;98.40
16412;DHT22;8315;52.104;6.304;2022-12-24T06:20:22;10.50;98.40
16412;DHT22;8315;52.104;6.304;2022-12-24T06:22:50;10.50;98.40
16412;DHT22;8315;52.104;6.304;2022-12-24T06:25:17;10.50;98.40
16412;DHT22;8315;52.104;6.304;2022-12-24T06:27:44;10.50;98.40
16412;DHT22;8315;52.104;6.304;2022-12-24T06:30:11;10.50;98.40
16412;DHT22;8315;52.104;6.304;2022-12-24T06:32:38;10.50;98.40
16412;DHT22;8315;52.104;6.304;2022-12-24T06:35:05;10.50;98.40
16412;DHT22;8315;52.104;6.304;2022-12-24T06:37:32;10.50;98.40
16412;DHT22;8315;52.104;6.304;2022-12-24T06:40:01;10.50;98.40
16412;DHT22;8315;52.104;6.304;2022-12-24T06:42:27;10.50;98.40
16412;DHT22;8315;52.104;6.304;2022-12-24T06:44:54;10.50;98.40
16412;DHT22;8315;52.104;6.304;2022-12-24T06:47:21;10.50;98.40
16412;DHT22;8315;52.104;6.304;2022-12-24T06:49:48;10.50;98.40
16412;DHT22;8315;52.104;6.304;2022-12-24T06:52:14;10.50;98.40
16412;DHT22;8315;52.104;6.304;2022-12-24T06:54:41;10.50;98.40
16412;DHT22;8315;52.104;6.304;2022-12-24T06:57:09;10.50;98.40
16412;DHT22;8315;52.104;6.304;2022-12-24T06:59:36;10.50;98.40
16412;DHT22;8315;52.104;6.304;2022-12-24T07:02:03;10.50;98.40
16412;DHT22;8315;52.104;6.304;2022-12-24T07:04:30;10.50;98.40
16412;DHT22;8315;52.104;6.304;2022-12-24T07:06:56;10.50;98.40
16412;DHT22;8315;52.104;6.304;2022-12-24T07:09:23;10.50;98.40
16412;DHT22;8315;52.104;6.304;2022-12-24T07:11:50;10.50;98.40
16412;DHT22;8315;52.104;6.304;2022-12-24T07:14:18;10.50;98.40
16412;DHT22;8315;52.104;6.304;2022-12-24T07:16:45;10.50;98.40
16412;DHT22;8315;52.104;6.304;2022-12-24T07:19:12;10.50;98.40
16412;DHT22;8315;52.104;6.304;2022-12-24T07:21:39;10.50;98.40
16412;DHT22;8315;52.104;6.304;2022-12-24T07:24:06;10.50;98.40
16412;DHT22;8315;52.104;6.304;2022-12-24T07:26:33;10.50;98.40
16412;DHT22;8315;52.104;6.304;2022-12-24T07:28:59;10.60;98.40
16412;DHT22;8315;52.104;6.304;2022-12-24T07:31:28;10.60;98.40
16412;DHT22;8315;52.104;6.304;2022-12-24T07:33:55;10.50;98.40
16412;DHT22;8315;52.104;6.304;2022-12-24T07:36:21;10.50;98.40
16412;DHT22;8315;52.104;6.304;2022-12-24T07:38:49;10.50;98.40
16412;DHT22;8315;52.104;6.304;2022-12-24T07:41:17;10.50;98.40
16412;DHT22;8315;52.104;6.304;2022-12-24T07:43:43;10.50;98.40
16412;DHT22;8315;52.104;6.304;2022-12-24T07:46:10;10.50;98.40
16412;DHT22;8315;52.104;6.304;2022-12-24T07:48:39;10.50;98.40
16412;DHT22;8315;52.104;6.304;2022-12-24T07:51:05;10.50;98.40
16412;DHT22;8315;52.104;6.304;2022-12-24T07:53:32;10.50;98.40
16412;DHT22;8315;52.104;6.304;2022-12-24T07:55:59;10.50;98.40
16412;DHT22;8315;52.104;6.304;2022-12-24T07:58:26;10.60;98.40
16412;DHT22;8315;52.104;6.304;2022-12-24T08:00:56;10.50;98.40
16412;DHT22;8315;52.104;6.304;2022-12-24T08:03:23;10.60;98.40
16412;DHT22;8315;52.104;6.304;2022-12-24T08:05:52;10.60;98.40
16412;DHT22;8315;52.104;6.304;2022-12-24T08:08:18;10.60;98.40
16412;DHT22;8315;52.104;6.304;2022-12-24T08:10:45;10.60;98.40
16412;DHT22;8315;52.104;6.304;2022-12-24T08:13:12;10.60;98.40
16412;DHT22;8315;52.104;6.304;2022-12-24T08:15:39;10.60;98.40
16412;DHT22;8315;52.104;6.304;2022-12-24T08:18:06;10.60;98.40
16412;DHT22;8315;52.104;6.304;2022-12-24T08:20:33;10.70;98.40
16412;DHT22;8315;52.104;6.304;2022-12-24T08:23:01;10.70;98.40
16412;DHT22;8315;52.104;6.304;2022-12-24T08:25:28;10.70;98.40
16412;DHT22;8315;52.104;6.304;2022-12-24T08:27:55;10.70;98.40
16412;DHT22;8315;52.104;6.304;2022-12-24T08:30:22;10.70;98.40
16412;DHT22;8315;52.104;6.304;2022-12-24T08:32:49;10.70;98.40
16412;DHT22;8315;52.104;6.304;2022-12-24T08:35:16;10.70;98.40
16412;DHT22;8315;52.104;6.304;2022-12-24T08:37:43;10.70;98.40
16412;DHT22;8315;52.104;6.304;2022-12-24T08:40:11;10.70;98.40
16412;DHT22;8315;52.104;6.304;2022-12-24T08:42:39;10.70;98.40
16412;DHT22;8315;52.104;6.304;2022-12-24T08:45:06;10.70;98.40
16412;DHT22;8315;52.104;6.304;2022-12-24T08:47:34;10.70;98.40
16412;DHT22;8315;52.104;6.304;2022-12-24T08:50:01;10.70;98.40
16412;DHT22;8315;52.104;6.304;2022-12-24T08:52:28;10.70;98.40
16412;DHT22;8315;52.104;6.304;2022-12-24T08:54:55;10.70;98.40
16412;DHT22;8315;52.104;6.304;2022-12-24T08:57:23;10.70;98.40
16412;DHT22;8315;52.104;6.304;2022-12-24T08:59:50;10.70;98.40
16412;DHT22;8315;52.104;6.304;2022-12-24T09:02:17;10.80;98.40
16412;DHT22;8315;52.104;6.304;2022-12-24T09:04:44;10.80;98.40
16412;DHT22;8315;52.104;6.304;2022-12-24T09:07:10;10.80;98.40
16412;DHT22;8315;52.104;6.304;2022-12-24T09:09:37;10.80;98.40
16412;DHT22;8315;52.104;6.304;2022-12-24T09:12:05;10.80;98.40
16412;DHT22;8315;52.104;6.304;2022-12-24T09:14:34;10.80;98.40
16412;DHT22;8315;52.104;6.304;2022-12-24T09:17:01;10.80;98.40
16412;DHT22;8315;52.104;6.304;2022-12-24T09:19:27;10.80;98.40
16412;DHT22;8315;52.104;6.304;2022-12-24T09:21:54;10.80;98.40
16412;DHT22;8315;52.104;6.304;2022-12-24T09:24:21;10.80;98.40
16412;DHT22;8315;52.104;6.304;2022-12-24T09:26:48;10.90;98.40
16412;DHT22;8315;52.104;6.304;2022-12-24T09:29:15;10.90;98.40
16412;DHT22;8315;52.104;6.304;2022-12-24T09:31:43;10.90;98.40
16412;DHT22;8315;52.104;6.304;2022-12-24T09:34:10;10.90;98.40
16412;DHT22;8315;52.104;6.304;2022-12-24T09:36:37;10.90;98.40
16412;DHT22;8315;52.104;6.304;2022-12-24T09:39:04;10.90;98.40
16412;DHT22;8315;52.104;6.304;2022-12-24T09:41:34;11.00;98.40
16412;DHT22;8315;52.104;6.304;2022-12-24T09:44:19;10.90;98.40
16412;DHT22;8315;52.104;6.304;2022-12-24T09:46:57;10.90;98.40
16412;DHT22;8315;52.104;6.304;2022-12-24T09:49:25;10.90;98.40
16412;DHT22;8315;52.104;6.304;2022-12-24T09:52:00;10.90;98.40
16412;DHT22;8315;52.104;6.304;2022-12-24T09:54:30;11.00;98.40
16412;DHT22;8315;52.104;6.304;2022-12-24T09:57:00;11.00;98.40
16412;DHT22;8315;52.104;6.304;2022-12-24T09:59:31;11.00;98.40
16412;DHT22;8315;52.104;6.304;2022-12-24T10:02:08;11.10;98.40
16412;DHT22;8315;52.104;6.304;2022-12-24T10:04:36;11.10;98.40
16412;DHT22;8315;52.104;6.304;2022-12-24T10:07:04;11.10;98.40
16412;DHT22;8315;52.104;6.304;2022-12-24T10:09:40;11.10;98.40
16412;DHT22;8315;52.104;6.304;2022-12-24T10:12:12;11.10;98.40
16412;DHT22;8315;52.104;6.304;2022-12-24T10:14:46;11.10;98.40
16412;DHT22;8315;52.104;6.304;2022-12-24T10:17:26;11.10;98.40
16412;DHT22;8315;52.104;6.304;2022-12-24T10:20:06;11.30;98.40
16412;DHT22;8315;52.104;6.304;2022-12-24T10:22:43;11.30;98.40
16412;DHT22;8315;52.104;6.304;2022-12-24T10:25:16;11.20;98.40
16412;DHT22;8315;52.104;6.304;2022-12-24T10:27:46;11.10;98.40
16412;DHT22;8315;52.104;6.304;2022-12-24T10:30:13;11.10;98.40
16412;DHT22;8315;52.104;6.304;2022-12-24T10:32:46;11.20;98.40
16412;DHT22;8315;52.104;6.304;2022-12-24T10:35:18;11.20;98.40
16412;DHT22;8315;52.104;6.304;2022-12-24T10:37:47;11.20;98.40
16412;DHT22;8315;52.104;6.304;2022-12-24T10:40:17;11.20;98.40
16412;DHT22;8315;52.104;6.304;2022-12-24T10:42:50;11.30;98.40
16412;DHT22;8315;52.104;6.304;2022-12-24T10:45:17;11.30;98.40
16412;DHT22;8315;52.104;6.304;2022-12-24T10:47:48;11.40;98.40
16412;DHT22;8315;52.104;6.304;2022-12-24T10:50:18;11.30;98.40
16412;DHT22;8315;52.104;6.304;2022-12-24T10:52:49;11.30;98.40
16412;DHT22;8315;52.104;6.304;2022-12-24T10:55:20;11.30;98.40
16412;DHT22;8315;52.104;6.304;2022-12-24T10:57:55;11.30;98.40
16412;DHT22;8315;52.104;6.304;2022-12-24T11:00:25;11.30;98.40
16412;DHT22;8315;52.104;6.304;2022-12-24T11:03:05;11.30;98.40
16412;DHT22;8315;52.104;6.304;2022-12-24T11:05:40;11.30;98.40
16412;DHT22;8315;52.104;6.304;2022-12-24T11:08:16;11.20;98.40
16412;DHT22;8315;52.104;6.304;2022-12-24T11:10:53;11.20;98.40
16412;DHT22;8315;52.104;6.304;2022-12-24T11:13:21;11.20;98.40
16412;DHT22;8315;52.104;6.304;2022-12-24T11:15:51;11.30;98.40
16412;DHT22;8315;52.104;6.304;2022-12-24T11:18:27;11.20;98.40
16412;DHT22;8315;52.104;6.304;2022-12-24T11:20:53;11.30;98.40
16412;DHT22;8315;52.104;6.304;2022-12-24T11:23:23;11.30;98.40
16412;DHT22;8315;52.104;6.304;2022-12-24T11:25:50;11.20;98.40
16412;DHT22;8315;52.104;6.304;2022-12-24T11:28:19;11.20;98.40
16412;DHT22;8315;52.104;6.304;2022-12-24T11:30:57;11.20;98.40
16412;DHT22;8315;52.104;6.304;2022-12-24T11:33:27;11.20;98.40
16412;DHT22;8315;52.104;6.304;2022-12-24T11:36:05;11.20;98.40
16412;DHT22;8315;52.104;6.304;2022-12-24T11:38:33;11.20;98.40
16412;DHT22;8315;52.104;6.304;2022-12-24T11:41:01;11.30;98.40
16412;DHT22;8315;52.104;6.304;2022-12-24T11:43:35;11.40;98.40
16412;DHT22;8315;52.104;6.304;2022-12-24T11:46:10;11.50;98.40
16412;DHT22;8315;52.104;6.304;2022-12-24T11:48:44;11.50;98.40
16412;DHT22;8315;52.104;6.304;2022-12-24T11:51:18;11.50;98.40
16412;DHT22;8315;52.104;6.304;2022-12-24T11:53:47;11.50;98.40
16412;DHT22;8315;52.104;6.304;2022-12-24T11:56:16;11.40;98.40
16412;DHT22;8315;52.104;6.304;2022-12-24T11:58:53;11.40;98.40
16412;DHT22;8315;52.104;6.304;2022-12-24T12:01:25;11.40;98.40
16412;DHT22;8315;52.104;6.304;2022-12-24T12:03:57;11.50;98.40
16412;DHT22;8315;52.104;6.304;2022-12-24T12:06:27;11.70;98.40
16412;DHT22;8315;52.104;6.304;2022-12-24T12:09:00;11.70;98.40
16412;DHT22;8315;52.104;6.304;2022-12-24T12:11:28;11.80;98.40
16412;DHT22;8315;52.104;6.304;2022-12-24T12:13:57;12.00;98.40
16412;DHT22;8315;52.104;6.304;2022-12-24T12:16:26;12.00;98.40
16412;DHT22;8315;52.104;6.304;2022-12-24T12:18:58;11.90;98.40
16412;DHT22;8315;52.104;6.304;2022-12-24T12:21:26;11.80;98.40
16412;DHT22;8315;52.104;6.304;2022-12-24T12:23:57;11.90;98.40
16412;DHT22;8315;52.104;6.304;2022-12-24T12:26:25;12.10;98.40
16412;DHT22;8315;52.104;6.304;2022-12-24T12:28:53;12.10;98.40
16412;DHT22;8315;52.104;6.304;2022-12-24T12:31:25;12.40;98.40
16412;DHT22;8315;52.104;6.304;2022-12-24T12:33:54;12.40;98.40
16412;DHT22;8315;52.104;6.304;2022-12-24T12:36:25;12.30;98.40
16412;DHT22;8315;52.104;6.304;2022-12-24T12:38:55;12.30;98.40
16412;DHT22;8315;52.104;6.304;2022-12-24T12:41:24;12.10;98.40
16412;DHT22;8315;52.104;6.304;2022-12-24T12:44:05;11.90;98.40
16412;DHT22;8315;52.104;6.304;2022-12-24T12:46:42;11.90;98.40
16412;DHT22;8315;52.104;6.304;2022-12-24T12:49:21;11.70;98.40
16412;DHT22;8315;52.104;6.304;2022-12-24T12:51:55;11.70;98.40
16412;DHT22;8315;52.104;6.304;2022-12-24T12:54:31;11.60;98.40
16412;DHT22;8315;52.104;6.304;2022-12-24T12:57:06;11.70;98.40
16412;DHT22;8315;52.104;6.304;2022-12-24T12:59:35;11.60;98.40
16412;DHT22;8315;52.104;6.304;2022-12-24T13:02:11;11.60;98.40
16412;DHT22;8315;52.104;6.304;2022-12-24T13:07:54;11.50;98.40
16412;DHT22;8315;52.104;6.304;2022-12-24T13:13:30;11.60;98.40
16412;DHT22;8315;52.104;6.304;2022-12-24T13:16:11;11.60;98.40
16412;DHT22;8315;52.104;6.304;2022-12-24T13:18:58;11.60;98.40
16412;DHT22;8315;52.104;6.304;2022-12-24T13:21:31;11.70;98.40
16412;DHT22;8315;52.104;6.304;2022-12-24T13:24:05;11.80;98.40
16412;DHT22;8315;52.104;6.304;2022-12-24T13:26:32;11.80;98.40
16412;DHT22;8315;52.104;6.304;2022-12-24T13:35:01;12.00;98.40
16412;DHT22;8315;52.104;6.304;2022-12-24T13:37:32;12.20;98.40
16412;DHT22;8315;52.104;6.304;2022-12-24T13:40:02;12.30;98.40
16412;DHT22;8315;52.104;6.304;2022-12-24T13:42:48;12.30;98.40
16412;DHT22;8315;52.104;6.304;2022-12-24T13:45:40;12.50;98.40
16412;DHT22;8315;52.104;6.304;2022-12-24T13:48:17;12.70;98.40
16412;DHT22;8315;52.104;6.304;2022-12-24T13:50:52;12.80;98.40
16412;DHT22;8315;52.104;6.304;2022-12-24T13:53:22;13.00;98.40
16412;DHT22;8315;52.104;6.304;2022-12-24T13:55:55;13.20;98.40
16412;DHT22;8315;52.104;6.304;2022-12-24T13:58:24;13.20;98.40
16412;DHT22;8315;52.104;6.304;2022-12-24T14:00:52;13.40;98.40
16412;DHT22;8315;52.104;6.304;2022-12-24T14:03:22;13.40;98.40
16412;DHT22;8315;52.104;6.304;2022-12-24T14:05:52;13.20;98.40
16412;DHT22;8315;52.104;6.304;2022-12-24T14:08:26;13.00;98.40
16412;DHT22;8315;52.104;6.304;2022-12-24T14:10:58;13.00;98.40
16412;DHT22;8315;52.104;6.304;2022-12-24T14:13:49;12.90;98.40
16412;DHT22;8315;52.104;6.304;2022-12-24T14:16:18;12.90;98.40
16412;DHT22;8315;52.104;6.304;2022-12-24T14:18:45;12.90;98.40
16412;DHT22;8315;52.104;6.304;2022-12-24T14:21:15;13.00;98.40
16412;DHT22;8315;52.104;6.304;2022-12-24T14:23:52;13.00;98.40
16412;DHT22;8315;52.104;6.304;2022-12-24T14:26:22;12.90;98.40
16412;DHT22;8315;52.104;6.304;2022-12-24T14:28:52;12.80;98.40
16412;DHT22;8315;52.104;6.304;2022-12-24T14:31:20;12.60;98.40
16412;DHT22;8315;52.104;6.304;2022-12-24T14:33:48;12.60;98.40
16412;DHT22;8315;52.104;6.304;2022-12-24T14:36:17;12.70;98.40
16412;DHT22;8315;52.104;6.304;2022-12-24T14:38:46;12.60;98.40
16412;DHT22;8315;52.104;6.304;2022-12-24T14:41:18;12.60;98.40
16412;DHT22;8315;52.104;6.304;2022-12-24T14:43:51;12.50;98.40
16412;DHT22;8315;52.104;6.304;2022-12-24T14:46:23;12.40;98.40
16412;DHT22;8315;52.104;6.304;2022-12-24T14:48:54;12.20;98.40
16412;DHT22;8315;52.104;6.304;2022-12-24T14:51:24;12.10;98.40
16412;DHT22;8315;52.104;6.304;2022-12-24T14:54:08;12.00;98.40
16412;DHT22;8315;52.104;6.304;2022-12-24T14:56:45;12.00;98.40
16412;DHT22;8315;52.104;6.304;2022-12-24T14:59:13;11.90;98.40
16412;DHT22;8315;52.104;6.304;2022-12-24T15:01:40;11.80;98.40
16412;DHT22;8315;52.104;6.304;2022-12-24T15:04:13;11.70;98.40
16412;DHT22;8315;52.104;6.304;2022-12-24T15:06:41;11.70;98.40
16412;DHT22;8315;52.104;6.304;2022-12-24T15:09:12;11.60;98.40
16412;DHT22;8315;52.104;6.304;2022-12-24T15:11:44;11.60;98.40
16412;DHT22;8315;52.104;6.304;2022-12-24T15:14:13;11.60;98.40
16412;DHT22;8315;52.104;6.304;2022-12-24T15:16:41;11.50;98.40
16412;DHT22;8315;52.104;6.304;2022-12-24T15:19:17;11.40;98.40
16412;DHT22;8315;52.104;6.304;2022-12-24T15:21:46;11.30;98.40
16412;DHT22;8315;52.104;6.304;2022-12-24T15:24:23;11.20;98.40
16412;DHT22;8315;52.104;6.304;2022-12-24T15:26:53;11.20;98.40
16412;DHT22;8315;52.104;6.304;2022-12-24T15:29:21;11.10;98.40
16412;DHT22;8315;52.104;6.304;2022-12-24T15:31:52;11.10;98.40
16412;DHT22;8315;52.104;6.304;2022-12-24T15:34:26;11.10;98.40
16412;DHT22;8315;52.104;6.304;2022-12-24T15:37:01;11.10;98.40
16412;DHT22;8315;52.104;6.304;2022-12-24T15:39:29;11.00;98.40
16412;DHT22;8315;52.104;6.304;2022-12-24T15:41:57;11.00;98.40
16412;DHT22;8315;52.104;6.304;2022-12-24T15:44:39;10.90;98.40
16412;DHT22;8315;52.104;6.304;2022-12-24T15:47:13;10.90;98.40
16412;DHT22;8315;52.104;6.304;2022-12-24T15:49:42;10.90;98.40
16412;DHT22;8315;52.104;6.304;2022-12-24T15:52:10;10.80;98.40
16412;DHT22;8315;52.104;6.304;2022-12-24T15:54:42;10.70;98.40
16412;DHT22;8315;52.104;6.304;2022-12-24T15:57:19;10.80;98.40
16412;DHT22;8315;52.104;6.304;2022-12-24T15:59:49;10.70;98.40
16412;DHT22;8315;52.104;6.304;2022-12-24T16:02:20;10.70;98.40
16412;DHT22;8315;52.104;6.304;2022-12-24T16:07:58;10.60;98.40
16412;DHT22;8315;52.104;6.304;2022-12-24T16:10:35;10.50;98.40
16412;DHT22;8315;52.104;6.304;2022-12-24T16:13:12;10.50;98.40
16412;DHT22;8315;52.104;6.304;2022-12-24T16:15:48;10.50;98.40
16412;DHT22;8315;52.104;6.304;2022-12-24T16:18:18;10.40;98.40
16412;DHT22;8315;52.104;6.304;2022-12-24T16:20:50;10.50;98.40
16412;DHT22;8315;52.104;6.304;2022-12-24T16:23:18;10.50;98.40